sensor_id;sensor_type;location;lat;lon;timestamp;pressure;altitude;pressure_sealevel;temperature;humidity
967;BME280;56108;48.730;9.304;2023-05-22T00:00:54;97082.00;;;14.35;100.00
967;BME280;56108;48.730;9.304;2023-05-22T00:03:08;97079.06;;;14.28;100.00
967;BME280;56108;48.730;9.304;2023-05-22T00:05:16;97072.72;;;14.20;100.00
967;BME280;56108;48.730;9.304;2023-05-22T00:07:25;97074.84;;;14.26;100.00
967;BME280;56108;48.730;9.304;2023-05-22T00:09:33;97086.25;;;14.47;100.00
967;BME280;56108;48.730;9.304;2023-05-22T00:11:41;97087.91;;;14.39;100.00
967;BME280;56108;48.730;9.304;2023-05-22T00:13:49;97089.34;;;14.33;100.00
967;BME280;56108;48.730;9.304;2023-05-22T00:15:58;97077.38;;;14.27;100.00
967;BME280;56108;48.730;9.304;2023-05-22T00:18:08;97081.88;;;14.27;100.00
967;BME280;56108;48.730;9.304;2023-05-22T00:20:17;97066.53;;;13.90;100.00
967;BME280;56108;48.730;9.304;2023-05-22T00:22:25;97053.72;;;13.74;100.00
967;BME280;56108;48.730;9.304;2023-05-22T00:24:35;97048.47;;;13.73;100.00
967;BME280;56108;48.730;9.304;2023-05-22T00:26:43;97046.53;;;13.65;100.00
967;BME280;56108;48.730;9.304;2023-05-22T00:28:52;97042.00;;;13.66;100.00
967;BME280;56108;48.730;9.304;2023-05-22T00:31:04;97038.91;;;13.61;100.00
967;BME280;56108;48.730;9.304;2023-05-22T00:33:27;97030.03;;;13.50;100.00
967;BME280;56108;48.730;9.304;2023-05-22T00:35:35;97031.28;;;13.46;100.00
967;BME280;56108;48.730;9.304;2023-05-22T00:37:43;97022.84;;;13.41;100.00
967;BME280;56108;48.730;9.304;2023-05-22T00:39:51;97016.53;;;13.42;100.00
967;BME280;56108;48.730;9.304;2023-05-22T00:41:59;97009.47;;;13.41;100.00
967;BME280;56108;48.730;9.304;2023-05-22T00:44:20;97008.63;;;13.41;100.00
967;BME280;56108;48.730;9.304;2023-05-22T00:46:28;97017.34;;;13.33;100.00
967;BME280;56108;48.730;9.304;2023-05-22T00:48:40;96998.66;;;13.33;100.00
967;BME280;56108;48.730;9.304;2023-05-22T00:50:49;97003.88;;;13.44;100.00
967;BME280;56108;48.730;9.304;2023-05-22T00:52:57;97005.69;;;13.44;100.00
967;BME280;56108;48.730;9.304;2023-05-22T00:55:08;97011.88;;;13.44;100.00
967;BME280;56108;48.730;9.304;2023-05-22T00:57:17;97008.78;;;13.39;100.00
967;BME280;56108;48.730;9.304;2023-05-22T00:59:26;97020.03;;;13.33;100.00
967;BME280;56108;48.730;9.304;2023-05-22T01:01:34;97018.03;;;13.25;100.00
967;BME280;56108;48.730;9.304;2023-05-22T01:03:49;97021.00;;;13.22;100.00
967;BME280;56108;48.730;9.304;2023-05-22T01:05:59;97024.59;;;13.12;100.00
967;BME280;56108;48.730;9.304;2023-05-22T01:08:08;97024.16;;;13.06;100.00
967;BME280;56108;48.730;9.304;2023-05-22T01:10:16;97023.84;;;13.00;100.00
967;BME280;56108;48.730;9.304;2023-05-22T01:12:30;97013.88;;;13.02;100.00
967;BME280;56108;48.730;9.304;2023-05-22T01:14:43;97009.22;;;13.04;100.00
967;BME280;56108;48.730;9.304;2023-05-22T01:16:59;97013.44;;;12.97;100.00
967;BME280;56108;48.730;9.304;2023-05-22T01:22:03;97010.03;;;12.85;100.00
967;BME280;56108;48.730;9.304;2023-05-22T01:24:51;97011.41;;;12.89;100.00
967;BME280;56108;48.730;9.304;2023-05-22T01:27:27;97008.75;;;12.89;100.00
967;BME280;56108;48.730;9.304;2023-05-22T01:29:43;96998.38;;;12.96;100.00
967;BME280;56108;48.730;9.304;2023-05-22T01:31:57;97002.59;;;12.98;100.00
967;BME280;56108;48.730;9.304;2023-05-22T01:34:09;97007.69;;;13.01;100.00
967;BME280;56108;48.730;9.304;2023-05-22T01:36:20;97012.84;;;12.93;100.00
967;BME280;56108;48.730;9.304;2023-05-22T01:38:30;97014.81;;;12.91;100.00
967;BME280;56108;48.730;9.304;2023-05-22T01:40:39;97017.31;;;12.83;100.00
967;BME280;56108;48.730;9.304;2023-05-22T01:42:47;97014.09;;;12.79;100.00
967;BME280;56108;48.730;9.304;2023-05-22T01:44:56;97009.88;;;12.87;100.00
967;BME280;56108;48.730;9.304;2023-05-22T01:47:07;97022.72;;;13.02;100.00
967;BME280;56108;48.730;9.304;2023-05-22T01:49:16;97032.88;;;13.09;100.00
967;BME280;56108;48.730;9.304;2023-05-22T01:51:32;97053.44;;;13.18;100.00
967;BME280;56108;48.730;9.304;2023-05-22T01:53:50;97049.75;;;13.19;100.00
967;BME280;56108;48.730;9.304;2023-05-22T01:56:06;97054.28;;;13.18;100.00
967;BME280;56108;48.730;9.304;2023-05-22T01:58:25;97053.69;;;13.15;100.00
967;BME280;56108;48.730;9.304;2023-05-22T02:00:37;97062.44;;;13.17;100.00
967;BME280;56108;48.730;9.304;2023-05-22T02:02:56;97057.09;;;13.17;100.00
967;BME280;56108;48.730;9.304;2023-05-22T02:05:05;97057.94;;;13.17;100.00
967;BME280;56108;48.730;9.304;2023-05-22T02:07:18;97067.41;;;13.21;100.00
967;BME280;56108;48.730;9.304;2023-05-22T02:09:29;97066.78;;;13.18;100.00
967;BME280;56108;48.730;9.304;2023-05-22T02:11:39;97061.25;;;13.10;100.00
967;BME280;56108;48.730;9.304;2023-05-22T02:13:48;97066.00;;;12.96;100.00
967;BME280;56108;48.730;9.304;2023-05-22T02:18:11;97056.53;;;12.83;100.00
967;BME280;56108;48.730;9.304;2023-05-22T02:20:21;97048.06;;;12.77;100.00
967;BME280;56108;48.730;9.304;2023-05-22T02:22:29;97038.19;;;12.68;100.00
967;BME280;56108;48.730;9.304;2023-05-22T02:24:37;97029.59;;;12.65;100.00
967;BME280;56108;48.730;9.304;2023-05-22T02:26:46;97031.50;;;12.74;100.00
967;BME280;56108;48.730;9.304;2023-05-22T02:28:54;97032.47;;;12.83;100.00
967;BME280;56108;48.730;9.304;2023-05-22T02:31:02;97035.78;;;12.96;100.00
967;BME280;56108;48.730;9.304;2023-05-22T02:33:13;97047.84;;;12.90;100.00
967;BME280;56108;48.730;9.304;2023-05-22T02:35:22;97053.19;;;12.90;100.00
967;BME280;56108;48.730;9.304;2023-05-22T02:37:30;97044.50;;;12.98;100.00
967;BME280;56108;48.730;9.304;2023-05-22T02:39:38;97045.34;;;12.98;100.00
967;BME280;56108;48.730;9.304;2023-05-22T02:41:46;97062.59;;;12.94;100.00
967;BME280;56108;48.730;9.304;2023-05-22T02:43:54;97058.41;;;12.92;100.00
967;BME280;56108;48.730;9.304;2023-05-22T02:46:03;97056.25;;;12.86;100.00
967;BME280;56108;48.730;9.304;2023-05-22T02:48:14;97054.13;;;12.79;100.00
967;BME280;56108;48.730;9.304;2023-05-22T02:50:25;97054.25;;;12.78;100.00
967;BME280;56108;48.730;9.304;2023-05-22T02:52:35;97057.31;;;12.73;100.00
967;BME280;56108;48.730;9.304;2023-05-22T02:54:44;97049.88;;;12.77;100.00
967;BME280;56108;48.730;9.304;2023-05-22T02:56:52;97056.25;;;12.86;100.00
967;BME280;56108;48.730;9.304;2023-05-22T02:59:00;97061.00;;;12.82;100.00
967;BME280;56108;48.730;9.304;2023-05-22T03:01:09;97057.75;;;12.78;100.00
967;BME280;56108;48.730;9.304;2023-05-22T03:03:20;97059.47;;;12.79;100.00
967;BME280;56108;48.730;9.304;2023-05-22T03:05:29;97061.16;;;12.80;100.00
967;BME280;56108;48.730;9.304;2023-05-22T03:07:38;97067.19;;;12.83;100.00
967;BME280;56108;48.730;9.304;2023-05-22T03:09:46;97063.44;;;12.85;100.00
967;BME280;56108;48.730;9.304;2023-05-22T03:11:54;97058.63;;;12.79;100.00
967;BME280;56108;48.730;9.304;2023-05-22T03:14:03;97058.44;;;12.71;100.00
967;BME280;56108;48.730;9.304;2023-05-22T03:16:11;97059.41;;;12.70;100.00
967;BME280;56108;48.730;9.304;2023-05-22T03:18:25;97053.72;;;12.53;100.00
967;BME280;56108;48.730;9.304;2023-05-22T03:20:33;97042.69;;;12.47;100.00
967;BME280;56108;48.730;9.304;2023-05-22T03:22:42;97040.63;;;12.50;100.00
967;BME280;56108;48.730;9.304;2023-05-22T03:24:51;97040.19;;;12.45;100.00
967;BME280;56108;48.730;9.304;2023-05-22T03:26:59;97041.56;;;12.40;100.00
967;BME280;56108;48.730;9.304;2023-05-22T03:29:14;97032.94;;;12.36;100.00
967;BME280;56108;48.730;9.304;2023-05-22T03:31:23;97037.75;;;12.42;100.00
967;BME280;56108;48.730;9.304;2023-05-22T03:33:41;97047.19;;;12.46;100.00
967;BME280;56108;48.730;9.304;2023-05-22T03:35:56;97060.44;;;12.48;100.00
967;BME280;56108;48.730;9.304;2023-05-22T03:38:06;97060.59;;;12.56;100.00
967;BME280;56108;48.730;9.304;2023-05-22T03:40:15;97060.00;;;12.52;100.00
967;BME280;56108;48.730;9.304;2023-05-22T03:42:23;97064.06;;;12.47;100.00
967;BME280;56108;48.730;9.304;2023-05-22T03:44:31;97065.19;;;12.44;100.00
967;BME280;56108;48.730;9.304;2023-05-22T03:46:39;97068.09;;;12.41;100.00
967;BME280;56108;48.730;9.304;2023-05-22T03:48:50;97064.34;;;12.44;100.00
967;BME280;56108;48.730;9.304;2023-05-22T03:50:58;97059.31;;;12.30;100.00
967;BME280;56108;48.730;9.304;2023-05-22T03:53:06;97052.69;;;12.24;100.00
967;BME280;56108;48.730;9.304;2023-05-22T03:55:14;97042.53;;;12.18;100.00
967;BME280;56108;48.730;9.304;2023-05-22T03:57:23;97038.50;;;12.23;100.00
967;BME280;56108;48.730;9.304;2023-05-22T03:59:32;97033.03;;;12.25;100.00
967;BME280;56108;48.730;9.304;2023-05-22T04:01:40;97038.97;;;12.28;100.00
967;BME280;56108;48.730;9.304;2023-05-22T04:03:53;97038.75;;;12.20;100.00
967;BME280;56108;48.730;9.304;2023-05-22T04:06:01;97041.69;;;12.17;100.00
967;BME280;56108;48.730;9.304;2023-05-22T04:08:09;97034.09;;;12.13;100.00
967;BME280;56108;48.730;9.304;2023-05-22T04:10:17;97037.19;;;12.18;100.00
967;BME280;56108;48.730;9.304;2023-05-22T04:12:27;97049.56;;;12.19;100.00
967;BME280;56108;48.730;9.304;2023-05-22T04:14:35;97053.06;;;12.19;100.00
967;BME280;56108;48.730;9.304;2023-05-22T04:16:44;97054.56;;;12.33;100.00
967;BME280;56108;48.730;9.304;2023-05-22T04:18:59;97060.75;;;12.34;100.00
967;BME280;56108;48.730;9.304;2023-05-22T04:21:09;97063.28;;;12.35;100.00
967;BME280;56108;48.730;9.304;2023-05-22T04:23:17;97065.94;;;12.35;100.00
967;BME280;56108;48.730;9.304;2023-05-22T04:25:26;97071.88;;;12.60;100.00
967;BME280;56108;48.730;9.304;2023-05-22T04:27:35;97085.63;;;12.86;100.00
967;BME280;56108;48.730;9.304;2023-05-22T04:29:44;97086.78;;;12.93;100.00
967;BME280;56108;48.730;9.304;2023-05-22T04:31:52;97114.66;;;13.30;100.00
967;BME280;56108;48.730;9.304;2023-05-22T04:34:02;97130.03;;;14.07;100.00
967;BME280;56108;48.730;9.304;2023-05-22T04:36:10;97169.06;;;14.29;100.00
967;BME280;56108;48.730;9.304;2023-05-22T04:38:31;97187.44;;;14.73;100.00
967;BME280;56108;48.730;9.304;2023-05-22T04:40:40;97192.31;;;14.97;100.00
967;BME280;56108;48.730;9.304;2023-05-22T04:42:48;97199.72;;;15.32;100.00
967;BME280;56108;48.730;9.304;2023-05-22T04:44:58;97203.88;;;16.54;100.00
967;BME280;56108;48.730;9.304;2023-05-22T04:47:09;97208.06;;;17.54;100.00
967;BME280;56108;48.730;9.304;2023-05-22T04:49:21;97211.00;;;18.11;100.00
967;BME280;56108;48.730;9.304;2023-05-22T04:51:33;97215.56;;;19.10;95.84
967;BME280;56108;48.730;9.304;2023-05-22T04:53:41;97212.25;;;19.88;87.26
967;BME280;56108;48.730;9.304;2023-05-22T04:55:50;97214.94;;;19.96;83.94
967;BME280;56108;48.730;9.304;2023-05-22T04:57:58;97218.50;;;19.89;85.73
967;BME280;56108;48.730;9.304;2023-05-22T05:00:07;97228.91;;;20.78;79.04
967;BME280;56108;48.730;9.304;2023-05-22T05:02:16;97230.41;;;21.19;73.13
967;BME280;56108;48.730;9.304;2023-05-22T05:04:27;97229.06;;;20.77;73.71
967;BME280;56108;48.730;9.304;2023-05-22T05:06:35;97235.69;;;20.74;73.68
967;BME280;56108;48.730;9.304;2023-05-22T05:08:44;97231.31;;;21.57;70.35
967;BME280;56108;48.730;9.304;2023-05-22T05:10:53;97259.00;;;22.77;61.81
967;BME280;56108;48.730;9.304;2023-05-22T05:13:01;97269.34;;;23.25;58.64
967;BME280;56108;48.730;9.304;2023-05-22T05:15:14;97268.09;;;23.70;56.29
967;BME280;56108;48.730;9.304;2023-05-22T05:17:22;97263.81;;;22.97;59.10
967;BME280;56108;48.730;9.304;2023-05-22T05:19:33;97270.81;;;23.27;56.91
967;BME280;56108;48.730;9.304;2023-05-22T05:21:41;97279.66;;;22.93;57.30
967;BME280;56108;48.730;9.304;2023-05-22T05:23:49;97275.31;;;24.19;53.99
967;BME280;56108;48.730;9.304;2023-05-22T05:25:59;97286.69;;;24.77;51.81
967;BME280;56108;48.730;9.304;2023-05-22T05:28:15;97288.56;;;24.70;51.62
967;BME280;56108;48.730;9.304;2023-05-22T05:30:24;97285.16;;;24.27;51.75
967;BME280;56108;48.730;9.304;2023-05-22T05:32:50;97263.22;;;22.65;56.79
967;BME280;56108;48.730;9.304;2023-05-22T05:35:36;97227.66;;;20.58;68.79
967;BME280;56108;48.730;9.304;2023-05-22T05:37:49;97216.44;;;20.38;72.43
967;BME280;56108;48.730;9.304;2023-05-22T05:39:58;97225.09;;;20.88;70.48
967;BME280;56108;48.730;9.304;2023-05-22T05:42:06;97238.59;;;22.01;65.99
967;BME280;56108;48.730;9.304;2023-05-22T05:44:15;97253.63;;;23.69;57.45
967;BME280;56108;48.730;9.304;2023-05-22T05:46:23;97268.94;;;24.05;56.43
967;BME280;56108;48.730;9.304;2023-05-22T05:48:31;97283.56;;;26.01;50.27
967;BME280;56108;48.730;9.304;2023-05-22T05:50:42;97292.75;;;25.67;48.00
967;BME280;56108;48.730;9.304;2023-05-22T05:52:52;97298.44;;;26.83;47.67
967;BME280;56108;48.730;9.304;2023-05-22T05:55:00;97305.59;;;26.84;46.12
967;BME280;56108;48.730;9.304;2023-05-22T05:57:08;97318.38;;;27.35;44.96
967;BME280;56108;48.730;9.304;2023-05-22T05:59:17;97291.44;;;24.55;51.17
967;BME280;56108;48.730;9.304;2023-05-22T06:01:52;97301.16;;;26.18;47.71
967;BME280;56108;48.730;9.304;2023-05-22T06:04:05;97309.22;;;26.71;46.79
967;BME280;56108;48.730;9.304;2023-05-22T06:06:18;97319.97;;;27.49;45.07
967;BME280;56108;48.730;9.304;2023-05-22T06:08:53;97308.03;;;25.35;48.34
967;BME280;56108;48.730;9.304;2023-05-22T06:11:07;97313.88;;;26.64;47.13
967;BME280;56108;48.730;9.304;2023-05-22T06:13:25;97323.22;;;27.33;44.77
967;BME280;56108;48.730;9.304;2023-05-22T06:15:33;97327.13;;;28.07;43.18
967;BME280;56108;48.730;9.304;2023-05-22T06:17:41;97341.38;;;28.41;41.81
967;BME280;56108;48.730;9.304;2023-05-22T06:19:50;97348.78;;;29.74;39.49
967;BME280;56108;48.730;9.304;2023-05-22T06:22:03;97308.75;;;25.76;47.17
967;BME280;56108;48.730;9.304;2023-05-22T06:24:13;97314.72;;;26.51;46.99
967;BME280;56108;48.730;9.304;2023-05-22T06:26:21;97328.22;;;26.98;45.49
967;BME280;56108;48.730;9.304;2023-05-22T06:28:30;97310.78;;;25.61;48.26
967;BME280;56108;48.730;9.304;2023-05-22T06:30:39;97299.97;;;25.00;49.37
967;BME280;56108;48.730;9.304;2023-05-22T06:32:52;97314.50;;;28.06;44.53
967;BME280;56108;48.730;9.304;2023-05-22T06:35:01;97327.53;;;28.29;43.65
967;BME280;56108;48.730;9.304;2023-05-22T06:37:13;97317.03;;;26.68;45.93
967;BME280;56108;48.730;9.304;2023-05-22T06:39:22;97312.41;;;26.68;46.07
967;BME280;56108;48.730;9.304;2023-05-22T06:42:00;97319.31;;;28.11;43.93
967;BME280;56108;48.730;9.304;2023-05-22T06:44:27;97338.31;;;29.71;40.55
967;BME280;56108;48.730;9.304;2023-05-22T06:46:44;97351.75;;;31.36;36.97
967;BME280;56108;48.730;9.304;2023-05-22T06:49:03;97358.34;;;31.24;37.21
967;BME280;56108;48.730;9.304;2023-05-22T06:51:21;97353.69;;;31.24;36.34
967;BME280;56108;48.730;9.304;2023-05-22T06:53:40;97349.50;;;31.22;36.69
967;BME280;56108;48.730;9.304;2023-05-22T06:55:56;97362.38;;;31.44;35.65
967;BME280;56108;48.730;9.304;2023-05-22T06:58:15;97354.28;;;30.86;37.28
967;BME280;56108;48.730;9.304;2023-05-22T07:00:24;97340.41;;;28.72;40.30
967;BME280;56108;48.730;9.304;2023-05-22T07:02:52;97338.50;;;30.46;39.63
967;BME280;56108;48.730;9.304;2023-05-22T07:05:06;97352.25;;;31.33;37.60
967;BME280;56108;48.730;9.304;2023-05-22T07:07:26;97354.28;;;31.83;36.78
967;BME280;56108;48.730;9.304;2023-05-22T07:09:36;97364.00;;;32.03;34.67
967;BME280;56108;48.730;9.304;2023-05-22T07:11:45;97359.59;;;32.18;35.33
967;BME280;56108;48.730;9.304;2023-05-22T07:13:53;97374.75;;;32.71;34.63
967;BME280;56108;48.730;9.304;2023-05-22T07:16:02;97371.78;;;31.77;35.02
967;BME280;56108;48.730;9.304;2023-05-22T07:18:12;97372.09;;;32.09;35.62
967;BME280;56108;48.730;9.304;2023-05-22T07:20:21;97363.78;;;32.93;34.58
967;BME280;56108;48.730;9.304;2023-05-22T07:22:44;97367.94;;;33.40;34.23
967;BME280;56108;48.730;9.304;2023-05-22T07:24:55;97365.31;;;32.00;36.73
967;BME280;56108;48.730;9.304;2023-05-22T07:27:08;97365.00;;;32.47;35.31
967;BME280;56108;48.730;9.304;2023-05-22T07:29:17;97366.22;;;31.89;35.50
967;BME280;56108;48.730;9.304;2023-05-22T07:31:30;97359.50;;;32.47;34.38
967;BME280;56108;48.730;9.304;2023-05-22T07:33:39;97365.66;;;32.20;35.45
967;BME280;56108;48.730;9.304;2023-05-22T07:35:48;97355.97;;;32.35;35.56
967;BME280;56108;48.730;9.304;2023-05-22T07:37:56;97359.94;;;32.78;34.47
967;BME280;56108;48.730;9.304;2023-05-22T07:40:09;97354.28;;;32.84;34.13
967;BME280;56108;48.730;9.304;2023-05-22T07:42:17;97368.34;;;33.48;33.60
967;BME280;56108;48.730;9.304;2023-05-22T07:44:30;97367.59;;;32.54;33.22
967;BME280;56108;48.730;9.304;2023-05-22T07:46:38;97361.63;;;33.66;32.93
967;BME280;56108;48.730;9.304;2023-05-22T07:48:53;97365.59;;;34.35;31.22
967;BME280;56108;48.730;9.304;2023-05-22T07:51:01;97371.09;;;35.04;30.42
967;BME280;56108;48.730;9.304;2023-05-22T07:53:10;97368.34;;;35.09;31.24
967;BME280;56108;48.730;9.304;2023-05-22T07:55:24;97368.63;;;34.01;31.36
967;BME280;56108;48.730;9.304;2023-05-22T07:57:32;97359.81;;;34.36;32.05
967;BME280;56108;48.730;9.304;2023-05-22T07:59:48;97351.94;;;33.91;33.84
967;BME280;56108;48.730;9.304;2023-05-22T08:01:59;97353.56;;;33.87;33.60
967;BME280;56108;48.730;9.304;2023-05-22T08:04:07;97344.78;;;29.88;37.71
967;BME280;56108;48.730;9.304;2023-05-22T08:06:17;97304.75;;;29.38;39.86
967;BME280;56108;48.730;9.304;2023-05-22T08:08:29;97298.75;;;30.37;40.44
967;BME280;56108;48.730;9.304;2023-05-22T08:10:41;97308.03;;;29.89;39.89
967;BME280;56108;48.730;9.304;2023-05-22T08:13:06;97303.91;;;29.56;41.95
967;BME280;56108;48.730;9.304;2023-05-22T08:15:16;97298.13;;;29.46;41.93
967;BME280;56108;48.730;9.304;2023-05-22T08:17:24;97300.00;;;29.04;43.18
967;BME280;56108;48.730;9.304;2023-05-22T08:19:32;97295.94;;;29.06;43.71
967;BME280;56108;48.730;9.304;2023-05-22T08:21:41;97289.50;;;28.82;43.76
967;BME280;56108;48.730;9.304;2023-05-22T08:23:51;97291.47;;;28.39;44.62
967;BME280;56108;48.730;9.304;2023-05-22T08:26:05;97285.28;;;28.25;45.49
967;BME280;56108;48.730;9.304;2023-05-22T08:28:16;97289.25;;;29.02;43.55
967;BME280;56108;48.730;9.304;2023-05-22T08:30:24;97279.25;;;28.41;43.65
967;BME280;56108;48.730;9.304;2023-05-22T08:32:34;97276.53;;;27.73;46.21
967;BME280;56108;48.730;9.304;2023-05-22T08:34:43;97276.78;;;28.70;46.92
967;BME280;56108;48.730;9.304;2023-05-22T08:36:59;97286.31;;;28.24;45.19
967;BME280;56108;48.730;9.304;2023-05-22T08:39:08;97268.66;;;27.83;47.55
967;BME280;56108;48.730;9.304;2023-05-22T08:41:22;97267.94;;;27.63;48.03
967;BME280;56108;48.730;9.304;2023-05-22T08:43:30;97266.59;;;26.70;49.36
967;BME280;56108;48.730;9.304;2023-05-22T08:45:38;97259.50;;;26.63;52.52
967;BME280;56108;48.730;9.304;2023-05-22T08:47:51;97258.19;;;26.72;52.14
967;BME280;56108;48.730;9.304;2023-05-22T08:50:03;97261.59;;;26.61;52.07
967;BME280;56108;48.730;9.304;2023-05-22T08:52:21;97262.94;;;26.90;51.15
967;BME280;56108;48.730;9.304;2023-05-22T08:54:34;97268.22;;;26.78;50.38
967;BME280;56108;48.730;9.304;2023-05-22T08:56:45;97268.72;;;26.68;51.93
967;BME280;56108;48.730;9.304;2023-05-22T08:59:03;97261.19;;;26.57;53.25
967;BME280;56108;48.730;9.304;2023-05-22T09:01:21;97265.03;;;26.94;51.71
967;BME280;56108;48.730;9.304;2023-05-22T09:03:31;97273.38;;;26.41;50.99
967;BME280;56108;48.730;9.304;2023-05-22T09:05:41;97260.38;;;26.50;51.29
967;BME280;56108;48.730;9.304;2023-05-22T09:07:51;97268.19;;;27.29;50.09
967;BME280;56108;48.730;9.304;2023-05-22T09:10:07;97259.56;;;26.88;51.63
967;BME280;56108;48.730;9.304;2023-05-22T09:12:21;97262.19;;;25.78;52.07
967;BME280;56108;48.730;9.304;2023-05-22T09:14:37;97247.97;;;24.75;56.98
967;BME280;56108;48.730;9.304;2023-05-22T09:16:51;97252.88;;;26.19;57.20
967;BME280;56108;48.730;9.304;2023-05-22T09:19:00;97255.72;;;28.70;50.68
967;BME280;56108;48.730;9.304;2023-05-22T09:21:10;97277.97;;;30.41;44.64
967;BME280;56108;48.730;9.304;2023-05-22T09:23:33;97279.75;;;30.47;43.39
967;BME280;56108;48.730;9.304;2023-05-22T09:25:41;97283.88;;;29.56;44.09
967;BME280;56108;48.730;9.304;2023-05-22T09:27:55;97266.59;;;27.97;48.87
967;BME280;56108;48.730;9.304;2023-05-22T09:30:05;97261.78;;;27.04;51.18
967;BME280;56108;48.730;9.304;2023-05-22T09:32:17;97264.25;;;27.50;50.59
967;BME280;56108;48.730;9.304;2023-05-22T09:34:27;97265.25;;;29.16;48.43
967;BME280;56108;48.730;9.304;2023-05-22T09:36:36;97271.91;;;29.08;46.79
967;BME280;56108;48.730;9.304;2023-05-22T09:38:44;97273.59;;;30.28;45.17
967;BME280;56108;48.730;9.304;2023-05-22T09:40:53;97284.16;;;30.01;42.13
967;BME280;56108;48.730;9.304;2023-05-22T09:43:06;97280.72;;;29.10;43.42
967;BME280;56108;48.730;9.304;2023-05-22T09:45:18;97273.06;;;28.64;45.54
967;BME280;56108;48.730;9.304;2023-05-22T09:47:33;97268.75;;;28.38;45.26
967;BME280;56108;48.730;9.304;2023-05-22T09:49:45;97276.88;;;30.77;42.44
967;BME280;56108;48.730;9.304;2023-05-22T09:51:53;97273.81;;;31.93;41.62
967;BME280;56108;48.730;9.304;2023-05-22T09:54:03;97266.56;;;29.14;42.21
967;BME280;56108;48.730;9.304;2023-05-22T09:56:14;97271.91;;;30.15;43.93
967;BME280;56108;48.730;9.304;2023-05-22T09:58:46;97280.66;;;31.16;41.95
967;BME280;56108;48.730;9.304;2023-05-22T10:00:58;97287.03;;;31.79;39.15
967;BME280;56108;48.730;9.304;2023-05-22T10:03:11;97286.34;;;32.56;38.59
967;BME280;56108;48.730;9.304;2023-05-22T10:05:23;97293.38;;;33.08;36.95
967;BME280;56108;48.730;9.304;2023-05-22T10:07:35;97289.38;;;32.55;36.68
967;BME280;56108;48.730;9.304;2023-05-22T10:09:50;97289.22;;;32.28;37.00
967;BME280;56108;48.730;9.304;2023-05-22T10:12:02;97287.88;;;32.47;36.00
967;BME280;56108;48.730;9.304;2023-05-22T10:14:17;97280.72;;;32.29;37.55
967;BME280;56108;48.730;9.304;2023-05-22T10:16:26;97275.69;;;32.26;38.92
967;BME280;56108;48.730;9.304;2023-05-22T10:18:36;97290.09;;;32.11;38.09
967;BME280;56108;48.730;9.304;2023-05-22T10:20:45;97282.56;;;29.70;39.83
967;BME280;56108;48.730;9.304;2023-05-22T10:22:54;97270.13;;;29.14;41.29
967;BME280;56108;48.730;9.304;2023-05-22T10:25:07;97261.50;;;29.94;42.76
967;BME280;56108;48.730;9.304;2023-05-22T10:27:17;97275.94;;;31.00;40.62
967;BME280;56108;48.730;9.304;2023-05-22T10:29:32;97265.31;;;31.04;40.79
967;BME280;56108;48.730;9.304;2023-05-22T10:31:50;97263.41;;;29.94;40.92
967;BME280;56108;48.730;9.304;2023-05-22T10:34:10;97264.59;;;29.86;40.27
967;BME280;56108;48.730;9.304;2023-05-22T10:36:26;97255.53;;;30.09;42.05
967;BME280;56108;48.730;9.304;2023-05-22T10:38:49;97261.56;;;31.10;41.38
967;BME280;56108;48.730;9.304;2023-05-22T10:41:01;97250.81;;;31.08;42.38
967;BME280;56108;48.730;9.304;2023-05-22T10:43:10;97257.22;;;31.26;40.60
967;BME280;56108;48.730;9.304;2023-05-22T10:45:24;97248.97;;;30.97;41.50
967;BME280;56108;48.730;9.304;2023-05-22T10:47:33;97244.47;;;30.79;42.79
967;BME280;56108;48.730;9.304;2023-05-22T10:49:48;97250.44;;;30.88;40.57
967;BME280;56108;48.730;9.304;2023-05-22T10:51:57;97233.72;;;30.14;42.11
967;BME280;56108;48.730;9.304;2023-05-22T10:54:06;97243.91;;;30.77;41.90
967;BME280;56108;48.730;9.304;2023-05-22T10:56:19;97237.84;;;31.32;41.41
967;BME280;56108;48.730;9.304;2023-05-22T10:58:33;97240.72;;;31.26;41.96
967;BME280;56108;48.730;9.304;2023-05-22T11:00:45;97242.16;;;31.16;39.91
967;BME280;56108;48.730;9.304;2023-05-22T11:03:02;97240.69;;;30.57;40.01
967;BME280;56108;48.730;9.304;2023-05-22T11:05:34;97233.47;;;30.27;42.12
967;BME280;56108;48.730;9.304;2023-05-22T11:07:44;97225.59;;;30.07;44.30
967;BME280;56108;48.730;9.304;2023-05-22T11:10:00;97226.31;;;29.68;42.30
967;BME280;56108;48.730;9.304;2023-05-22T11:12:13;97208.94;;;28.72;46.97
967;BME280;56108;48.730;9.304;2023-05-22T11:14:25;97203.72;;;29.00;46.79
967;BME280;56108;48.730;9.304;2023-05-22T11:16:40;97207.09;;;28.84;45.76
967;BME280;56108;48.730;9.304;2023-05-22T11:18:48;97202.13;;;28.93;43.91
967;BME280;56108;48.730;9.304;2023-05-22T11:20:58;97206.78;;;28.92;45.79
967;BME280;56108;48.730;9.304;2023-05-22T11:23:06;97197.34;;;28.88;46.61
967;BME280;56108;48.730;9.304;2023-05-22T11:25:16;97204.31;;;29.02;45.94
967;BME280;56108;48.730;9.304;2023-05-22T11:27:25;97196.66;;;28.93;46.01
967;BME280;56108;48.730;9.304;2023-05-22T11:29:34;97192.75;;;29.00;45.24
967;BME280;56108;48.730;9.304;2023-05-22T11:31:46;97199.22;;;29.06;45.63
967;BME280;56108;48.730;9.304;2023-05-22T11:33:58;97189.84;;;29.14;45.48
967;BME280;56108;48.730;9.304;2023-05-22T11:38:31;97182.56;;;28.89;46.08
967;BME280;56108;48.730;9.304;2023-05-22T11:40:41;97179.66;;;28.72;45.37
967;BME280;56108;48.730;9.304;2023-05-22T11:42:55;97185.06;;;28.60;43.97
967;BME280;56108;48.730;9.304;2023-05-22T11:45:07;97184.03;;;27.63;45.49
967;BME280;56108;48.730;9.304;2023-05-22T11:47:18;97174.16;;;27.62;46.59
967;BME280;56108;48.730;9.304;2023-05-22T11:49:26;97163.50;;;27.79;47.33
967;BME280;56108;48.730;9.304;2023-05-22T11:51:37;97149.97;;;28.02;48.83
967;BME280;56108;48.730;9.304;2023-05-22T11:53:46;97147.91;;;27.98;49.05
967;BME280;56108;48.730;9.304;2023-05-22T11:56:00;97158.19;;;28.02;47.27
967;BME280;56108;48.730;9.304;2023-05-22T11:58:08;97161.31;;;27.63;45.13
967;BME280;56108;48.730;9.304;2023-05-22T12:00:17;97164.88;;;27.63;45.83